createdAt,value
2018-06-29T00:00:59.695Z,22.70
2018-06-29T00:03:28.793Z,22.60
2018-06-29T00:05:57.262Z,22.60
2018-06-29T00:08:25.682Z,22.50
2018-06-29T00:10:54.691Z,22.50
2018-06-29T00:13:23.567Z,22.40
2018-06-29T00:15:52.233Z,22.40
2018-06-29T00:18:20.821Z,22.30
2018-06-29T00:20:49.333Z,22.30
2018-06-29T00:23:17.972Z,22.30
2018-06-29T00:25:46.710Z,22.30
2018-06-29T00:28:15.808Z,22.20
2018-06-29T00:30:44.592Z,22.20
2018-06-29T00:33:14.122Z,22.20
2018-06-29T00:38:12.410Z,22.10
2018-06-29T00:40:41.136Z,22.10
2018-06-29T00:43:09.606Z,22.10
2018-06-29T00:45:38.040Z,22.00
2018-06-29T00:48:06.703Z,22.00
2018-06-29T00:50:35.107Z,22.00
2018-06-29T00:53:03.462Z,22.00
2018-06-29T00:55:32.336Z,21.90
2018-06-29T00:58:04.751Z,21.90
2018-06-29T01:00:36.861Z,21.90
2018-06-29T01:03:05.500Z,21.80
2018-06-29T01:05:34.547Z,21.80
2018-06-29T01:08:02.947Z,21.80
2018-06-29T01:10:31.483Z,21.80
2018-06-29T01:13:00.031Z,21.70
2018-06-29T01:15:28.920Z,21.70
2018-06-29T01:17:57.309Z,21.70
2018-06-29T01:20:25.824Z,21.60
2018-06-29T01:22:54.220Z,21.60
2018-06-29T01:25:22.620Z,21.60
2018-06-29T01:27:51.025Z,21.50
2018-06-29T01:30:19.533Z,21.50
2018-06-29T01:32:48.017Z,21.50
2018-06-29T01:35:16.663Z,21.50
2018-06-29T01:37:45.190Z,21.50
2018-06-29T01:40:13.842Z,21.50
2018-06-29T01:42:42.323Z,21.40
2018-06-29T01:45:10.698Z,21.40
2018-06-29T01:47:39.271Z,21.40
2018-06-29T01:50:07.740Z,21.40
2018-06-29T01:52:37.156Z,21.40
2018-06-29T01:55:05.647Z,21.30
2018-06-29T01:57:34.361Z,21.20
2018-06-29T02:00:02.766Z,21.20
2018-06-29T02:02:31.138Z,21.20
2018-06-29T02:04:59.471Z,21.10
2018-06-29T02:07:28.014Z,21.10
2018-06-29T02:09:57.097Z,21.00
2018-06-29T02:12:25.780Z,21.00
2018-06-29T02:14:54.497Z,20.90
2018-06-29T02:17:23.342Z,20.90
2018-06-29T02:19:52.228Z,20.80
2018-06-29T02:22:21.153Z,20.80
2018-06-29T02:24:49.918Z,20.80
2018-06-29T02:29:46.912Z,20.70
2018-06-29T02:32:15.781Z,20.70
2018-06-29T02:39:41.063Z,20.70
2018-06-29T02:42:10.755Z,20.70
2018-06-29T02:44:39.238Z,20.60
2018-06-29T02:47:07.994Z,20.60
2018-06-29T02:49:37.065Z,20.60
2018-06-29T02:52:05.571Z,20.60
2018-06-29T02:54:34.265Z,20.60
2018-06-29T02:57:05.671Z,20.50
2018-06-29T02:59:34.300Z,20.50
2018-06-29T03:02:05.429Z,20.50
2018-06-29T03:04:33.856Z,20.50
2018-06-29T03:07:02.739Z,20.40
2018-06-29T03:09:31.498Z,20.40
2018-06-29T03:12:00.060Z,20.40
2018-06-29T03:14:28.886Z,20.30
2018-06-29T03:16:57.828Z,20.30
2018-06-29T03:21:55.414Z,20.20
2018-06-29T03:24:24.034Z,20.20
2018-06-29T03:26:52.639Z,20.20
2018-06-29T03:29:21.639Z,20.20
2018-06-29T03:31:50.473Z,20.20
2018-06-29T03:34:19.165Z,20.10
2018-06-29T03:36:47.710Z,20.10
2018-06-29T03:39:16.954Z,20.10
2018-06-29T03:41:45.618Z,20.10
2018-06-29T03:49:11.017Z,20.00
2018-06-29T03:51:40.034Z,20.00
2018-06-29T03:54:08.854Z,20.00
2018-06-29T03:56:37.591Z,20.00
2018-06-29T03:59:06.665Z,20.00
2018-06-29T04:04:03.694Z,19.90
2018-06-29T04:06:32.748Z,19.80
2018-06-29T04:09:01.485Z,19.80
2018-06-29T04:11:30.280Z,19.80
2018-06-29T04:13:59.394Z,19.80
2018-06-29T04:16:28.103Z,19.80
2018-06-29T04:18:59.834Z,19.80
2018-06-29T04:21:28.856Z,19.70
2018-06-29T04:24:02.199Z,19.80
2018-06-29T04:26:30.974Z,19.80
2018-06-29T04:28:59.357Z,19.80
2018-06-29T04:31:27.722Z,19.80
2018-06-29T04:33:56.303Z,19.80
2018-06-29T04:36:24.858Z,19.80
2018-06-29T04:38:53.399Z,19.80
2018-06-29T04:41:21.822Z,19.90
2018-06-29T04:43:50.479Z,19.90
2018-06-29T04:46:18.882Z,19.90
2018-06-29T04:48:47.376Z,20.00
2018-06-29T04:51:15.754Z,20.00
2018-06-29T04:53:44.178Z,20.00
2018-06-29T04:56:12.596Z,20.00
2018-06-29T04:58:41.049Z,20.00
2018-06-29T05:01:09.368Z,20.10
2018-06-29T05:03:37.768Z,20.10
2018-06-29T05:06:06.453Z,20.10
2018-06-29T05:08:34.840Z,20.10
2018-06-29T05:11:03.310Z,20.20
2018-06-29T05:13:31.638Z,20.20
2018-06-29T05:16:00.066Z,20.30
2018-06-29T05:18:28.426Z,20.30
2018-06-29T05:20:56.789Z,20.40
2018-06-29T05:23:25.503Z,20.40
2018-06-29T05:25:53.963Z,20.50
2018-06-29T05:28:22.380Z,20.50
2018-06-29T05:30:51.219Z,20.50
2018-06-29T05:33:19.800Z,20.50
2018-06-29T05:35:48.612Z,20.60
2018-06-29T05:38:16.951Z,20.60
2018-06-29T05:43:13.500Z,20.70
2018-06-29T05:45:41.927Z,20.70
2018-06-29T05:48:10.298Z,20.80
2018-06-29T05:50:38.707Z,20.80
2018-06-29T05:53:07.574Z,20.90
2018-06-29T05:58:04.206Z,21.00
2018-06-29T06:00:32.643Z,21.00
2018-06-29T06:03:01.321Z,21.00
2018-06-29T06:05:31.229Z,21.10
2018-06-29T06:07:59.663Z,21.10
2018-06-29T06:10:28.281Z,21.20
2018-06-29T06:12:56.675Z,21.20
2018-06-29T06:15:25.138Z,21.30
2018-06-29T06:17:53.596Z,21.30
2018-06-29T06:20:21.949Z,21.40
2018-06-29T06:22:50.397Z,21.40
2018-06-29T06:25:18.928Z,21.40
2018-06-29T06:27:47.425Z,21.40
2018-06-29T06:30:15.805Z,21.40
2018-06-29T06:32:44.178Z,21.50
2018-06-29T06:35:12.541Z,21.50
2018-06-29T06:37:40.943Z,21.50
2018-06-29T06:40:09.370Z,21.60
2018-06-29T06:42:37.775Z,21.70
2018-06-29T06:45:06.464Z,21.80
2018-06-29T06:47:34.835Z,21.80
2018-06-29T06:50:03.422Z,21.90
2018-06-29T06:52:31.909Z,22.00
2018-06-29T06:55:00.313Z,22.00
2018-06-29T06:57:28.672Z,22.10
2018-06-29T06:59:57.083Z,22.10
2018-06-29T07:02:25.431Z,22.20
2018-06-29T07:04:54.307Z,22.30
2018-06-29T07:07:22.787Z,22.30
2018-06-29T07:09:51.210Z,22.40
2018-06-29T07:12:19.636Z,22.50
2018-06-29T07:14:48.187Z,22.50
2018-06-29T07:17:16.742Z,22.60
2018-06-29T07:19:45.235Z,22.70
2018-06-29T07:22:13.681Z,22.70
2018-06-29T07:24:42.111Z,22.80
2018-06-29T07:27:10.544Z,22.80
2018-06-29T07:29:39.149Z,22.80
2018-06-29T07:32:07.720Z,22.80
2018-06-29T07:34:36.096Z,22.90
2018-06-29T07:37:04.786Z,23.00
2018-06-29T07:39:33.210Z,23.00
2018-06-29T07:42:01.728Z,23.10
2018-06-29T07:44:30.087Z,23.20
2018-06-29T07:46:58.446Z,23.20
2018-06-29T07:49:26.870Z,23.30
2018-06-29T07:51:55.459Z,23.30
2018-06-29T07:54:24.831Z,23.40
2018-06-29T07:56:53.522Z,23.40
2018-06-29T07:59:22.043Z,23.40
2018-06-29T08:01:51.173Z,23.50
2018-06-29T08:06:48.192Z,23.50
2018-06-29T08:09:16.906Z,23.60
2018-06-29T08:11:45.618Z,23.60
2018-06-29T08:14:14.027Z,23.70
2018-06-29T08:16:42.567Z,23.70
2018-06-29T08:21:39.827Z,23.80
2018-06-29T08:24:08.355Z,24.00
2018-06-29T08:26:37.231Z,24.00
2018-06-29T08:29:05.733Z,24.10
2018-06-29T08:31:34.396Z,24.10
2018-06-29T08:34:03.166Z,24.20
2018-06-29T08:36:31.668Z,24.20
2018-06-29T08:39:00.275Z,24.30
2018-06-29T08:41:29.060Z,24.30
2018-06-29T08:43:57.730Z,24.40
2018-06-29T08:46:26.067Z,24.50
2018-06-29T08:48:54.438Z,24.60
2018-06-29T08:51:22.795Z,24.60
2018-06-29T08:53:51.159Z,24.70
2018-06-29T08:56:19.511Z,24.80
2018-06-29T08:58:48.058Z,24.90
2018-06-29T09:01:16.474Z,25.00
2018-06-29T09:03:44.885Z,25.00
2018-06-29T09:06:13.351Z,25.10
2018-06-29T09:08:41.920Z,25.20
2018-06-29T09:11:10.279Z,25.30
2018-06-29T09:13:38.944Z,25.30
2018-06-29T09:16:07.390Z,25.40
2018-06-29T09:18:35.806Z,25.50
2018-06-29T09:21:04.309Z,25.60
2018-06-29T09:23:32.836Z,25.60
2018-06-29T09:26:01.316Z,25.70
2018-06-29T09:28:30.001Z,25.70
2018-06-29T09:30:58.597Z,25.80
2018-06-29T09:33:27.137Z,25.80
2018-06-29T09:35:55.666Z,25.90
2018-06-29T09:38:24.011Z,25.90
2018-06-29T09:40:52.407Z,26.00
2018-06-29T09:43:20.826Z,26.10
2018-06-29T09:45:49.200Z,26.20
2018-06-29T09:48:17.567Z,26.30
2018-06-29T09:50:45.938Z,26.40
2018-06-29T09:53:14.273Z,26.50
2018-06-29T09:55:42.682Z,26.60
2018-06-29T09:58:11.405Z,26.70
2018-06-29T10:00:39.771Z,26.80
2018-06-29T10:03:08.155Z,26.80
2018-06-29T10:05:36.566Z,26.80
2018-06-29T10:08:05.000Z,26.90
2018-06-29T10:10:34.592Z,26.90
2018-06-29T10:13:03.227Z,27.00
2018-06-29T10:15:32.241Z,27.10
2018-06-29T10:18:00.725Z,27.10
2018-06-29T10:20:29.260Z,27.10
2018-06-29T10:22:57.674Z,27.10
2018-06-29T10:25:26.154Z,27.20
2018-06-29T10:27:54.646Z,27.30
2018-06-29T10:30:23.021Z,27.50
2018-06-29T10:32:51.372Z,27.50
2018-06-29T10:35:19.855Z,27.70
2018-06-29T10:37:48.244Z,27.80
2018-06-29T10:40:16.650Z,27.90
2018-06-29T10:42:45.064Z,28.10
2018-06-29T10:45:13.436Z,28.20
2018-06-29T10:47:41.936Z,28.40
2018-06-29T10:50:10.611Z,28.50
2018-06-29T10:52:39.326Z,28.60
2018-06-29T10:55:07.991Z,28.80
2018-06-29T10:57:36.409Z,28.90
2018-06-29T11:00:05.821Z,28.90
2018-06-29T11:02:34.275Z,29.00
2018-06-29T11:05:02.737Z,29.10
2018-06-29T11:07:31.303Z,29.20
2018-06-29T11:09:59.782Z,29.30
2018-06-29T11:15:59.855Z,29.40
2018-06-29T11:18:28.686Z,29.50
2018-06-29T11:20:57.244Z,29.50
2018-06-29T11:23:25.690Z,29.70
2018-06-29T11:25:54.051Z,29.90
2018-06-29T11:30:50.773Z,30.20
2018-06-29T11:33:19.623Z,30.30
2018-06-29T11:35:48.244Z,30.40
2018-06-29T11:38:16.696Z,30.50
2018-06-29T11:40:45.149Z,30.70
2018-06-29T11:43:13.514Z,30.80
2018-06-29T11:45:42.021Z,30.90
2018-06-29T11:48:10.460Z,31.00
2018-06-29T11:50:39.116Z,31.10
2018-06-29T11:53:07.491Z,31.20
2018-06-29T11:55:36.004Z,31.30
2018-06-29T11:58:04.835Z,31.40
2018-06-29T12:00:33.340Z,31.50
2018-06-29T12:03:01.848Z,31.60
2018-06-29T12:05:30.331Z,31.80
2018-06-29T12:07:58.732Z,31.90
2018-06-29T12:10:27.229Z,32.00
2018-06-29T12:12:55.588Z,32.00
2018-06-29T12:15:24.047Z,32.00
2018-06-29T12:17:52.455Z,32.00
2018-06-29T12:20:20.995Z,32.10
2018-06-29T12:22:49.394Z,32.10
2018-06-29T12:25:17.841Z,32.10
2018-06-29T12:27:46.251Z,32.10
2018-06-29T12:30:14.792Z,32.10
2018-06-29T12:32:43.461Z,32.20
2018-06-29T12:35:11.962Z,32.20
2018-06-29T12:37:40.525Z,32.30
2018-06-29T12:40:08.998Z,32.40
2018-06-29T12:42:37.558Z,32.60
2018-06-29T12:45:05.939Z,32.80
2018-06-29T12:47:34.466Z,32.90
2018-06-29T12:50:02.915Z,32.90
2018-06-29T12:52:31.319Z,33.00
2018-06-29T12:54:59.673Z,33.00
2018-06-29T12:57:28.283Z,33.10
2018-06-29T12:59:56.750Z,33.20
2018-06-29T13:02:25.543Z,33.40
2018-06-29T13:04:53.949Z,33.40
2018-06-29T13:07:22.462Z,33.50
2018-06-29T13:09:50.859Z,33.40
2018-06-29T13:12:19.446Z,33.40
2018-06-29T13:14:47.895Z,33.40
2018-06-29T13:17:16.479Z,33.30
2018-06-29T13:19:44.851Z,33.30
2018-06-29T13:22:13.587Z,33.40
2018-06-29T13:24:42.467Z,33.40
2018-06-29T13:27:11.122Z,33.50
2018-06-29T13:29:39.824Z,33.50
2018-06-29T13:32:08.350Z,33.60
2018-06-29T13:34:36.907Z,33.70
2018-06-29T13:37:05.329Z,33.80
2018-06-29T13:39:34.493Z,33.80
2018-06-29T13:42:03.685Z,33.90
2018-06-29T13:44:32.582Z,33.90
2018-06-29T13:47:01.105Z,34.00
2018-06-29T13:49:30.460Z,34.10
2018-06-29T13:51:59.708Z,34.10
2018-06-29T13:54:29.225Z,34.10
2018-06-29T13:56:58.057Z,34.10
2018-06-29T13:59:27.657Z,34.20
2018-06-29T14:01:56.963Z,34.10
2018-06-29T14:04:28.863Z,34.10
2018-06-29T14:06:57.718Z,34.10
2018-06-29T14:09:27.286Z,34.10
2018-06-29T14:11:55.741Z,34.00
2018-06-29T14:14:24.955Z,33.90
2018-06-29T14:16:53.653Z,33.90
2018-06-29T14:19:22.729Z,34.00
2018-06-29T14:21:51.363Z,34.00
2018-06-29T14:24:19.884Z,34.00
2018-06-29T14:26:48.323Z,34.10
2018-06-29T14:29:17.024Z,34.20
2018-06-29T14:31:45.938Z,34.30
2018-06-29T14:34:14.485Z,34.30
2018-06-29T14:36:42.952Z,34.30
2018-06-29T14:39:12.261Z,34.30
2018-06-29T14:41:41.126Z,34.30
2018-06-29T14:44:10.095Z,34.40
2018-06-29T14:46:39.443Z,34.30
2018-06-29T14:49:09.100Z,34.40
2018-06-29T14:51:38.509Z,34.40
2018-06-29T14:54:07.765Z,34.40
2018-06-29T14:56:36.887Z,34.40
2018-06-29T14:59:05.479Z,34.40
2018-06-29T15:01:34.683Z,34.40
2018-06-29T15:04:03.522Z,34.40
2018-06-29T15:06:36.162Z,34.40
2018-06-29T15:09:07.675Z,34.40
2018-06-29T15:11:36.172Z,34.20
2018-06-29T15:14:04.705Z,34.10
2018-06-29T15:16:33.259Z,34.00
2018-06-29T15:21:29.897Z,34.00
2018-06-29T15:23:58.715Z,33.90
2018-06-29T15:26:27.299Z,33.80
2018-06-29T15:28:56.074Z,33.80
2018-06-29T15:31:24.621Z,33.80
2018-06-29T15:33:53.269Z,33.80
2018-06-29T15:36:21.735Z,33.80
2018-06-29T15:38:50.338Z,33.80
2018-06-29T15:41:19.235Z,33.80
2018-06-29T15:43:48.137Z,33.80
2018-06-29T15:46:17.259Z,33.70
2018-06-29T15:48:46.472Z,33.70
2018-06-29T15:51:15.048Z,33.60
2018-06-29T15:53:43.452Z,33.60
2018-06-29T15:56:12.363Z,33.60
2018-06-29T15:58:41.682Z,33.50
2018-06-29T16:01:10.216Z,33.50
2018-06-29T16:03:39.034Z,33.50
2018-06-29T16:06:07.761Z,33.50
2018-06-29T16:08:37.758Z,33.40
2018-06-29T16:11:07.111Z,33.30
2018-06-29T16:13:37.274Z,33.30
2018-06-29T16:16:06.610Z,33.30
2018-06-29T16:18:35.983Z,33.30
2018-06-29T16:21:04.470Z,33.20
2018-06-29T16:23:34.418Z,33.20
2018-06-29T16:26:02.894Z,33.10
2018-06-29T16:28:31.312Z,33.10
2018-06-29T16:30:59.852Z,33.00
2018-06-29T16:33:28.268Z,33.00
2018-06-29T16:35:56.833Z,32.90
2018-06-29T16:38:25.556Z,32.80
2018-06-29T16:40:54.119Z,32.80
2018-06-29T16:43:22.799Z,32.70
2018-06-29T16:45:51.961Z,32.70
2018-06-29T16:48:20.543Z,32.60
2018-06-29T16:50:49.344Z,32.60
2018-06-29T16:53:17.839Z,32.50
2018-06-29T16:55:46.914Z,32.40
2018-06-29T16:58:15.680Z,32.40
2018-06-29T17:00:44.383Z,32.30
2018-06-29T17:05:41.628Z,32.10
2018-06-29T17:08:10.487Z,31.90
2018-06-29T17:10:39.344Z,31.80
2018-06-29T17:13:07.999Z,31.70
2018-06-29T17:15:36.463Z,31.60
2018-06-29T17:18:05.139Z,31.50
2018-06-29T17:20:33.980Z,31.40
2018-06-29T17:25:31.747Z,31.30
2018-06-29T17:28:00.577Z,31.20
2018-06-29T17:30:30.314Z,31.20
2018-06-29T17:32:59.344Z,31.20
2018-06-29T17:35:28.717Z,31.10
2018-06-29T17:37:57.670Z,31.10
2018-06-29T17:40:30.691Z,31.00
2018-06-29T17:42:59.891Z,30.90
2018-06-29T17:45:28.861Z,30.80
2018-06-29T17:47:57.848Z,30.80
2018-06-29T17:50:26.955Z,30.60
2018-06-29T17:52:55.860Z,30.60
2018-06-29T17:55:25.191Z,30.50
2018-06-29T17:57:54.218Z,30.40
2018-06-29T18:00:23.353Z,30.30
2018-06-29T18:02:52.308Z,30.20
2018-06-29T18:05:21.412Z,30.10
2018-06-29T18:07:50.580Z,30.10
2018-06-29T18:10:19.494Z,30.00
2018-06-29T18:12:49.734Z,30.00
2018-06-29T18:15:19.465Z,29.90
2018-06-29T18:17:49.761Z,29.80
2018-06-29T18:20:18.317Z,29.80
2018-06-29T18:22:48.018Z,29.70
2018-06-29T18:25:16.578Z,29.70
2018-06-29T18:27:46.203Z,29.60
2018-06-29T18:30:15.631Z,29.60
2018-06-29T18:32:44.628Z,29.60
2018-06-29T18:35:13.249Z,29.50
2018-06-29T18:37:41.715Z,29.40
2018-06-29T18:40:10.312Z,29.40
2018-06-29T18:42:38.945Z,29.30
2018-06-29T18:45:07.664Z,29.30
2018-06-29T18:47:36.335Z,29.20
2018-06-29T18:50:05.281Z,29.20
2018-06-29T18:52:33.965Z,29.10
2018-06-29T18:55:02.654Z,29.10
2018-06-29T18:57:31.203Z,29.00
2018-06-29T19:00:00.639Z,29.00
2018-06-29T19:02:29.250Z,29.00
2018-06-29T19:04:58.334Z,28.90
2018-06-29T19:07:27.359Z,28.90
2018-06-29T19:09:56.098Z,28.80
2018-06-29T19:12:25.341Z,28.70
2018-06-29T19:14:53.829Z,28.70
2018-06-29T19:17:23.259Z,28.50
2018-06-29T19:19:53.001Z,28.50
2018-06-29T19:22:23.017Z,28.50
2018-06-29T19:27:22.542Z,28.30
2018-06-29T19:29:52.727Z,28.30
2018-06-29T19:32:22.463Z,28.20
2018-06-29T19:34:52.050Z,28.10
2018-06-29T19:37:21.629Z,28.00
2018-06-29T19:39:50.834Z,28.00
2018-06-29T19:42:20.519Z,27.90
2018-06-29T19:44:49.818Z,27.90
2018-06-29T19:47:20.031Z,27.80
2018-06-29T19:49:49.966Z,27.70
2018-06-29T19:52:21.189Z,27.70
2018-06-29T19:54:51.199Z,27.60
2018-06-29T19:57:21.538Z,27.50
2018-06-29T19:59:51.961Z,27.40
2018-06-29T20:02:25.635Z,27.40
2018-06-29T20:04:57.894Z,27.30
2018-06-29T20:07:27.916Z,27.20
2018-06-29T20:09:58.148Z,27.20
2018-06-29T20:12:28.280Z,27.10
2018-06-29T20:14:57.865Z,27.00
2018-06-29T20:17:27.827Z,27.00
2018-06-29T20:19:57.539Z,26.90
2018-06-29T20:22:27.450Z,26.90
2018-06-29T20:24:57.680Z,26.70
2018-06-29T20:27:28.244Z,26.70
2018-06-29T20:29:57.763Z,26.60
2018-06-29T20:32:27.370Z,26.60
2018-06-29T20:34:56.920Z,26.50
2018-06-29T20:37:26.618Z,26.50
2018-06-29T20:39:55.989Z,26.50
2018-06-29T20:42:25.882Z,26.40
2018-06-29T20:44:57.388Z,26.30
2018-06-29T20:47:27.165Z,26.30
2018-06-29T20:49:56.961Z,26.20
2018-06-29T20:52:25.782Z,26.20
2018-06-29T20:54:55.478Z,26.10
2018-06-29T20:57:24.242Z,26.00
2018-06-29T20:59:52.900Z,26.00
2018-06-29T21:02:21.639Z,25.90
2018-06-29T21:04:51.664Z,25.90
2018-06-29T21:07:20.482Z,25.90
2018-06-29T21:09:50.423Z,25.90
2018-06-29T21:12:19.949Z,25.80
2018-06-29T21:14:49.264Z,25.70
2018-06-29T21:17:17.977Z,25.70
2018-06-29T21:19:47.005Z,25.70
2018-06-29T21:22:17.139Z,25.60
2018-06-29T21:24:46.188Z,25.50
2018-06-29T21:27:18.798Z,25.50
2018-06-29T21:29:47.290Z,25.40
2018-06-29T21:32:16.506Z,25.40
2018-06-29T21:34:45.211Z,25.30
2018-06-29T21:37:14.462Z,25.30
2018-06-29T21:39:43.337Z,25.20
2018-06-29T21:42:12.081Z,25.20
2018-06-29T21:44:40.715Z,25.10
2018-06-29T21:47:10.128Z,25.00
2018-06-29T21:49:39.033Z,25.00
2018-06-29T21:54:37.218Z,24.90
2018-06-29T21:57:06.390Z,24.80
2018-06-29T21:59:36.281Z,24.70
2018-06-29T22:02:05.859Z,24.70
2018-06-29T22:04:37.270Z,24.60
2018-06-29T22:07:06.247Z,24.60
2018-06-29T22:09:36.557Z,24.60
2018-06-29T22:12:06.194Z,24.50
2018-06-29T22:14:35.717Z,24.40
2018-06-29T22:17:04.524Z,24.40
2018-06-29T22:19:33.056Z,24.30
2018-06-29T22:22:01.718Z,24.30
2018-06-29T22:24:30.623Z,24.20
2018-06-29T22:26:59.579Z,24.20
2018-06-29T22:29:29.044Z,24.20
2018-06-29T22:31:58.450Z,24.20
2018-06-29T22:36:55.894Z,24.10
2018-06-29T22:39:25.058Z,24.00
2018-06-29T22:41:54.475Z,24.00
2018-06-29T22:44:23.672Z,24.00
2018-06-29T22:46:55.458Z,23.90
2018-06-29T22:49:24.821Z,23.90
2018-06-29T22:51:55.065Z,23.90
2018-06-29T22:54:24.371Z,23.80
2018-06-29T22:56:53.359Z,23.80
2018-06-29T22:59:22.629Z,23.70
2018-06-29T23:01:51.910Z,23.70
2018-06-29T23:06:50.190Z,23.60
2018-06-29T23:09:19.023Z,23.50
2018-06-29T23:11:47.762Z,23.50
2018-06-29T23:14:17.262Z,23.40
2018-06-29T23:16:45.858Z,23.40
2018-06-29T23:19:14.459Z,23.30
2018-06-29T23:21:43.723Z,23.30
2018-06-29T23:24:12.868Z,23.30
2018-06-29T23:29:10.385Z,23.20
2018-06-29T23:31:39.070Z,23.10
2018-06-29T23:34:10.976Z,23.10
2018-06-29T23:36:39.423Z,23.10
2018-06-29T23:39:09.874Z,23.10
2018-06-29T23:41:38.354Z,23.10
2018-06-29T23:44:07.244Z,23.00
2018-06-29T23:46:35.810Z,23.00
2018-06-29T23:49:04.470Z,23.00
2018-06-29T23:51:32.892Z,22.90
2018-06-29T23:54:01.267Z,22.90
2018-06-29T23:56:29.848Z,22.90
2018-06-29T23:58:58.378Z,22.90
